createdAt,value
2022-12-28T00:01:20.757Z,1.60
2022-12-28T00:03:48.197Z,1.17
2022-12-28T00:06:15.658Z,1.30
2022-12-28T00:08:42.730Z,1.30
2022-12-28T00:11:20.309Z,1.42
2022-12-28T00:13:55.062Z,1.40
2022-12-28T00:16:25.333Z,1.27
2022-12-28T00:18:52.038Z,1.50
2022-12-28T00:21:18.742Z,1.40
2022-12-28T00:23:48.042Z,1.30
2022-12-28T00:26:14.554Z,1.73
2022-12-28T00:28:41.372Z,1.30
2022-12-28T00:31:08.006Z,1.63
2022-12-28T00:33:34.861Z,1.40
2022-12-28T00:36:02.484Z,1.70
2022-12-28T00:38:33.537Z,1.27
2022-12-28T00:41:00.125Z,1.60
2022-12-28T00:43:27.280Z,1.77
2022-12-28T00:45:54.025Z,1.33
2022-12-28T00:48:20.814Z,1.60
2022-12-28T00:50:47.341Z,1.60
2022-12-28T00:53:14.726Z,1.35
2022-12-28T00:55:42.162Z,1.33
2022-12-28T00:58:09.566Z,1.38
2022-12-28T01:00:37.447Z,1.77
2022-12-28T01:03:03.964Z,1.60
2022-12-28T01:05:30.570Z,1.70
2022-12-28T01:07:57.099Z,1.52
2022-12-28T01:10:23.586Z,1.75
2022-12-28T01:12:50.113Z,1.52
2022-12-28T01:15:16.762Z,1.75
2022-12-28T01:17:43.346Z,1.77
2022-12-28T01:20:10.443Z,1.98
2022-12-28T01:22:37.010Z,1.67
2022-12-28T01:25:03.657Z,1.63
2022-12-28T01:27:30.229Z,1.38
2022-12-28T01:29:56.740Z,1.73
2022-12-28T01:32:23.293Z,1.52
2022-12-28T01:34:49.776Z,1.75
2022-12-28T01:37:16.273Z,1.40
2022-12-28T01:39:42.787Z,1.55
2022-12-28T01:42:17.983Z,1.65
2022-12-28T01:44:48.851Z,1.58
2022-12-28T01:47:17.382Z,1.27
2022-12-28T01:49:51.991Z,1.80
2022-12-28T01:52:21.451Z,1.83
2022-12-28T01:55:36.294Z,1.77
2022-12-28T01:58:15.071Z,1.42
2022-12-28T02:00:41.742Z,1.60
2022-12-28T02:03:16.187Z,1.73
2022-12-28T02:05:46.512Z,1.70
2022-12-28T02:08:18.931Z,1.38
2022-12-28T02:10:47.092Z,1.63
2022-12-28T02:13:16.575Z,1.50
2022-12-28T02:15:44.011Z,1.40
2022-12-28T02:18:12.482Z,1.50
2022-12-28T02:20:49.807Z,1.58
2022-12-28T02:23:52.607Z,1.45
2022-12-28T02:26:56.375Z,1.52
2022-12-28T02:29:27.254Z,1.42
2022-12-28T02:32:15.431Z,1.42
2022-12-28T02:34:52.795Z,1.20
2022-12-28T02:37:24.555Z,1.63
2022-12-28T02:39:56.460Z,1.60
2022-12-28T02:42:25.720Z,1.40
2022-12-28T02:45:11.365Z,1.25
2022-12-28T02:48:00.911Z,1.40
2022-12-28T02:50:37.033Z,1.30
2022-12-28T02:53:27.910Z,1.15
2022-12-28T02:58:50.723Z,1.10
2022-12-28T03:02:02.397Z,1.10
2022-12-28T03:04:38.175Z,1.42
2022-12-28T03:07:41.733Z,1.23
2022-12-28T03:10:21.340Z,1.60
2022-12-28T03:12:58.612Z,1.20
2022-12-28T03:15:30.473Z,1.40
2022-12-28T03:18:30.461Z,1.20
2022-12-28T03:21:19.838Z,1.27
2022-12-28T03:24:07.253Z,1.10
2022-12-28T03:26:56.170Z,1.00
2022-12-28T03:29:43.634Z,1.20
2022-12-28T03:32:11.549Z,1.27
2022-12-28T03:34:38.452Z,1.02
2022-12-28T03:37:17.804Z,0.98
2022-12-28T03:40:01.004Z,1.20
2022-12-28T03:42:53.018Z,1.20
2022-12-28T03:45:45.075Z,0.90
2022-12-28T03:48:15.736Z,1.10
2022-12-28T03:50:45.798Z,1.00
2022-12-28T03:53:12.738Z,1.10
2022-12-28T03:55:40.489Z,0.90
2022-12-28T03:58:07.080Z,1.00
2022-12-28T04:00:33.887Z,1.10
2022-12-28T04:03:00.483Z,1.00
2022-12-28T04:05:27.050Z,1.20
2022-12-28T04:07:53.913Z,1.00
2022-12-28T04:10:20.658Z,1.27
2022-12-28T04:12:47.355Z,1.10
2022-12-28T04:15:13.907Z,0.93
2022-12-28T04:17:40.461Z,1.00
2022-12-28T04:20:07.407Z,0.98
2022-12-28T04:22:33.918Z,1.00
2022-12-28T04:25:00.461Z,0.90
2022-12-28T04:27:26.953Z,1.17
2022-12-28T04:29:53.458Z,0.90
2022-12-28T04:32:20.154Z,0.80
2022-12-28T04:34:48.998Z,1.13
2022-12-28T04:37:15.886Z,0.90
2022-12-28T04:39:55.932Z,0.85
2022-12-28T04:42:26.563Z,0.90
2022-12-28T04:44:53.132Z,1.00
2022-12-28T04:47:19.617Z,1.08
2022-12-28T04:49:46.318Z,0.75
2022-12-28T04:52:13.073Z,1.10
2022-12-28T04:54:39.701Z,0.70
2022-12-28T04:57:06.803Z,0.90
2022-12-28T04:59:33.353Z,1.10
2022-12-28T05:01:59.944Z,0.80
2022-12-28T05:04:26.618Z,0.90
2022-12-28T05:06:53.391Z,0.80
2022-12-28T05:09:19.836Z,0.80
2022-12-28T05:11:47.087Z,1.00
2022-12-28T05:14:13.718Z,0.70
2022-12-28T05:16:40.520Z,0.85
2022-12-28T05:19:07.134Z,1.00
2022-12-28T05:21:33.660Z,0.70
2022-12-28T05:24:00.208Z,0.65
2022-12-28T05:26:29.114Z,0.90
2022-12-28T05:28:57.096Z,1.08
2022-12-28T05:31:24.690Z,0.98
2022-12-28T05:33:52.104Z,0.70
2022-12-28T05:36:24.826Z,0.63
2022-12-28T05:38:51.655Z,0.77
2022-12-28T05:41:19.428Z,0.90
2022-12-28T05:43:46.470Z,0.90
2022-12-28T05:46:17.158Z,0.70
2022-12-28T05:51:14.188Z,0.50
2022-12-28T05:53:41.827Z,0.65
2022-12-28T05:56:20.539Z,0.70
2022-12-28T05:58:51.981Z,0.70
2022-12-28T06:01:21.011Z,0.73
2022-12-28T06:03:51.903Z,0.70
2022-12-28T06:06:19.793Z,0.80
2022-12-28T06:08:48.245Z,0.60
2022-12-28T06:11:18.173Z,0.57
2022-12-28T06:13:44.904Z,0.90
2022-12-28T06:16:14.725Z,0.63
2022-12-28T06:18:41.985Z,0.80
2022-12-28T06:21:19.765Z,0.45
2022-12-28T06:23:46.988Z,0.90
2022-12-28T06:26:17.341Z,0.80
2022-12-28T06:28:43.867Z,0.63
2022-12-28T06:31:18.388Z,0.60
2022-12-28T06:33:45.991Z,0.68
2022-12-28T06:36:17.749Z,0.50
2022-12-28T06:38:47.201Z,0.60
2022-12-28T06:41:15.076Z,0.60
2022-12-28T06:43:43.104Z,0.60
2022-12-28T06:46:10.634Z,0.60
2022-12-28T06:48:37.534Z,0.60
2022-12-28T06:51:11.343Z,0.60
2022-12-28T06:53:38.765Z,0.60
2022-12-28T06:56:12.140Z,0.50
2022-12-28T06:58:39.214Z,0.70
2022-12-28T07:01:22.930Z,0.60
2022-12-28T07:03:52.031Z,0.43
2022-12-28T07:06:20.210Z,0.50
2022-12-28T07:08:47.165Z,0.70
2022-12-28T07:11:17.450Z,0.55
2022-12-28T07:13:44.474Z,0.50
2022-12-28T07:16:16.419Z,0.70
2022-12-28T07:18:43.544Z,0.40
2022-12-28T07:21:21.815Z,0.60
2022-12-28T07:23:49.510Z,0.75
2022-12-28T07:26:22.306Z,0.77
2022-12-28T07:28:51.151Z,0.57
2022-12-28T07:31:22.765Z,0.50
2022-12-28T07:33:50.828Z,0.60
2022-12-28T07:36:19.612Z,0.65
2022-12-28T07:38:46.696Z,0.57
2022-12-28T07:41:16.107Z,0.60
2022-12-28T07:43:43.189Z,0.73
2022-12-28T07:46:24.937Z,0.70
2022-12-28T07:48:51.754Z,0.55
2022-12-28T07:51:18.177Z,0.60
2022-12-28T07:53:46.448Z,0.52
2022-12-28T07:56:13.576Z,0.63
2022-12-28T08:01:12.041Z,0.68
2022-12-28T08:03:40.281Z,0.80
2022-12-28T08:06:13.101Z,0.50
2022-12-28T08:08:45.174Z,0.70
2022-12-28T08:11:16.842Z,0.57
2022-12-28T08:13:45.762Z,0.63
2022-12-28T08:16:14.067Z,0.70
2022-12-28T08:18:41.288Z,0.70
2022-12-28T08:21:13.629Z,0.80
2022-12-28T08:23:40.847Z,0.70
2022-12-28T08:26:09.065Z,0.80
2022-12-28T08:28:35.895Z,0.60
2022-12-28T08:31:14.088Z,0.90
2022-12-28T08:33:40.987Z,0.75
2022-12-28T08:36:09.138Z,0.82
2022-12-28T08:38:37.373Z,0.80
2022-12-28T08:41:06.570Z,0.63
2022-12-28T08:43:34.252Z,0.80
2022-12-28T08:46:11.031Z,0.88
2022-12-28T08:48:38.309Z,0.65
2022-12-28T08:51:08.177Z,0.70
2022-12-28T08:53:35.485Z,0.70
2022-12-28T08:56:13.820Z,0.68
2022-12-28T08:58:42.201Z,0.80
2022-12-28T09:01:11.783Z,0.70
2022-12-28T09:03:40.057Z,0.65
2022-12-28T09:06:09.673Z,0.70
2022-12-28T09:08:37.008Z,0.60
2022-12-28T09:11:05.439Z,0.80
2022-12-28T09:13:33.234Z,0.80
2022-12-28T09:16:06.114Z,0.70
2022-12-28T09:18:33.261Z,0.70
2022-12-28T09:21:14.853Z,0.88
2022-12-28T09:23:42.424Z,0.60
2022-12-28T09:26:10.355Z,0.60
2022-12-28T09:28:37.701Z,0.50
2022-12-28T09:31:08.915Z,0.80
2022-12-28T09:36:43.691Z,0.68
2022-12-28T09:39:13.697Z,0.75
2022-12-28T09:42:03.716Z,0.88
2022-12-28T09:44:49.076Z,0.77
2022-12-28T09:47:47.315Z,0.60
2022-12-28T09:50:17.049Z,0.50
2022-12-28T09:52:57.442Z,0.80
2022-12-28T09:55:25.751Z,0.80
2022-12-28T09:57:56.041Z,0.80
2022-12-28T10:00:25.689Z,0.60
2022-12-28T10:02:58.374Z,0.50
2022-12-28T10:05:26.079Z,0.70
2022-12-28T10:07:53.945Z,0.90
2022-12-28T10:10:22.397Z,0.98
2022-12-28T10:12:50.925Z,0.80
2022-12-28T10:15:18.478Z,0.55
2022-12-28T10:17:45.548Z,0.80
2022-12-28T10:20:18.135Z,0.90
2022-12-28T10:22:50.820Z,0.70
2022-12-28T10:25:20.378Z,0.70
2022-12-28T10:27:47.062Z,0.80
2022-12-28T10:30:26.650Z,0.60
2022-12-28T10:33:02.138Z,0.77
2022-12-28T10:35:42.848Z,0.85
2022-12-28T10:38:29.195Z,0.80
2022-12-28T10:40:58.866Z,0.68
2022-12-28T10:43:29.364Z,0.80
2022-12-28T10:45:58.150Z,0.63
2022-12-28T10:48:47.605Z,0.70
2022-12-28T10:51:19.996Z,0.80
2022-12-28T10:53:49.848Z,0.70
2022-12-28T10:56:22.575Z,0.80
2022-12-28T10:58:52.054Z,0.60
2022-12-28T11:01:24.434Z,0.70
2022-12-28T11:03:56.992Z,0.82
2022-12-28T11:06:29.125Z,0.75
2022-12-28T11:09:07.245Z,0.70
2022-12-28T11:11:34.200Z,0.80
2022-12-28T11:14:11.303Z,0.70
2022-12-28T11:16:39.837Z,0.60
2022-12-28T11:19:06.419Z,0.70
2022-12-28T11:21:35.344Z,0.52
2022-12-28T11:24:02.270Z,0.75
2022-12-28T11:26:29.676Z,0.80
2022-12-28T11:28:56.314Z,0.70
2022-12-28T11:31:27.817Z,0.70
2022-12-28T11:34:00.097Z,0.70
2022-12-28T11:36:28.035Z,0.70
2022-12-28T11:38:56.499Z,0.77
2022-12-28T11:41:33.406Z,0.57
2022-12-28T11:44:04.547Z,0.70
2022-12-28T11:46:31.094Z,0.50
2022-12-28T11:49:05.456Z,0.60
2022-12-28T11:51:36.561Z,0.47
2022-12-28T11:54:38.668Z,0.70
2022-12-28T11:57:05.803Z,0.57
2022-12-28T11:59:34.531Z,0.60
2022-12-28T12:02:02.745Z,0.80
2022-12-28T12:04:29.876Z,0.80
2022-12-28T12:07:01.295Z,0.70
2022-12-28T12:09:33.033Z,0.73
2022-12-28T12:12:17.996Z,0.60
2022-12-28T12:14:49.230Z,0.85
2022-12-28T12:17:33.927Z,0.70
2022-12-28T12:20:08.384Z,0.70
2022-12-28T12:22:45.427Z,0.90
2022-12-28T12:25:22.032Z,0.70
2022-12-28T12:27:58.269Z,0.60
2022-12-28T12:30:25.312Z,0.70
2022-12-28T12:32:51.749Z,0.65
2022-12-28T12:35:22.078Z,0.60
2022-12-28T12:37:56.420Z,0.63
2022-12-28T12:40:42.055Z,0.60
2022-12-28T12:43:20.702Z,0.73
2022-12-28T12:46:06.586Z,0.70
2022-12-28T12:48:43.233Z,0.90
2022-12-28T12:51:16.048Z,0.85
2022-12-28T12:54:01.099Z,0.70
2022-12-28T12:56:27.596Z,0.52
2022-12-28T12:59:21.650Z,0.70
2022-12-28T13:02:12.555Z,1.05
2022-12-28T13:04:46.094Z,0.82
2022-12-28T13:07:25.485Z,0.90
2022-12-28T13:09:55.606Z,0.90
2022-12-28T13:12:23.737Z,0.73
2022-12-28T13:14:57.540Z,0.60
2022-12-28T13:17:24.742Z,0.73
2022-12-28T13:19:51.312Z,0.80
2022-12-28T13:22:32.239Z,1.00
2022-12-28T13:24:59.172Z,0.80
2022-12-28T13:27:33.544Z,0.60
2022-12-28T13:30:02.020Z,0.68
2022-12-28T13:32:37.771Z,0.80
2022-12-28T13:35:17.576Z,0.82
2022-12-28T13:37:44.047Z,0.70
2022-12-28T13:40:19.864Z,0.60
2022-12-28T13:43:14.326Z,1.00
2022-12-28T13:45:43.855Z,0.80
2022-12-28T13:48:13.174Z,0.80
2022-12-28T13:50:41.626Z,0.65
2022-12-28T13:53:15.764Z,0.47
2022-12-28T13:55:50.689Z,0.90
2022-12-28T13:58:22.045Z,0.80
2022-12-28T14:00:51.192Z,0.75
2022-12-28T14:03:19.235Z,0.80
2022-12-28T14:05:49.728Z,0.80
2022-12-28T14:08:17.765Z,0.80
2022-12-28T14:10:47.336Z,0.90
2022-12-28T14:13:15.135Z,0.80
2022-12-28T14:15:42.665Z,0.93
2022-12-28T14:18:13.642Z,0.90
2022-12-28T14:20:55.330Z,0.70
2022-12-28T14:23:24.490Z,0.60
2022-12-28T14:25:53.255Z,0.93
2022-12-28T14:28:30.218Z,0.80
2022-12-28T14:30:56.996Z,1.15
2022-12-28T14:33:27.697Z,0.77
2022-12-28T14:38:25.403Z,0.52
2022-12-28T14:41:03.155Z,0.98
2022-12-28T14:43:32.474Z,1.20
2022-12-28T14:46:37.307Z,0.57
2022-12-28T14:49:28.686Z,0.68
2022-12-28T14:52:07.976Z,0.88
2022-12-28T14:54:52.794Z,0.95
2022-12-28T14:57:42.978Z,0.75
2022-12-28T15:00:25.513Z,0.80
2022-12-28T15:02:53.891Z,0.80
2022-12-28T15:05:42.804Z,0.60
2022-12-28T15:08:10.193Z,0.73
2022-12-28T15:10:42.138Z,0.90
2022-12-28T15:13:09.304Z,0.77
2022-12-28T15:15:35.870Z,0.80
2022-12-28T15:18:02.534Z,0.90
2022-12-28T15:20:29.115Z,0.70
2022-12-28T15:22:55.826Z,0.90
2022-12-28T15:25:22.413Z,0.70
2022-12-28T15:27:50.789Z,0.77
2022-12-28T15:30:20.597Z,0.80
2022-12-28T15:32:49.711Z,0.90
2022-12-28T15:35:16.290Z,0.82
2022-12-28T15:37:42.838Z,0.80
2022-12-28T15:40:10.520Z,0.63
2022-12-28T15:42:40.515Z,0.70
2022-12-28T15:45:09.114Z,0.90
2022-12-28T15:47:35.870Z,0.80
2022-12-28T15:50:04.112Z,0.85
2022-12-28T15:52:31.842Z,0.70
2022-12-28T15:54:59.007Z,0.80
2022-12-28T15:57:26.356Z,0.85
2022-12-28T15:59:54.507Z,0.80
2022-12-28T16:02:22.073Z,0.90
2022-12-28T16:04:48.910Z,0.70
2022-12-28T16:07:16.242Z,0.73
2022-12-28T16:09:42.774Z,0.70
2022-12-28T16:12:09.401Z,0.90
2022-12-28T16:14:36.049Z,0.82
2022-12-28T16:17:02.615Z,0.70
2022-12-28T16:19:29.099Z,0.90
2022-12-28T16:21:55.661Z,0.90
2022-12-28T16:24:22.207Z,0.75
2022-12-28T16:26:48.848Z,0.77
2022-12-28T16:29:15.421Z,0.57
2022-12-28T16:31:41.987Z,0.70
2022-12-28T16:34:18.030Z,0.73
2022-12-28T16:36:47.910Z,0.80
2022-12-28T16:39:17.325Z,0.77
2022-12-28T16:41:44.184Z,0.80
2022-12-28T16:44:20.185Z,1.02
2022-12-28T16:46:47.748Z,0.80
2022-12-28T16:49:14.340Z,0.80
2022-12-28T16:51:43.907Z,1.10
2022-12-28T16:54:15.930Z,0.90
2022-12-28T16:56:43.643Z,0.90
2022-12-28T16:59:14.643Z,0.77
2022-12-28T17:01:42.828Z,0.70
2022-12-28T17:04:10.371Z,0.82
2022-12-28T17:06:38.233Z,0.70
2022-12-28T17:09:05.305Z,0.80
2022-12-28T17:11:31.991Z,0.75
2022-12-28T17:14:07.168Z,1.02
2022-12-28T17:16:34.254Z,0.90
2022-12-28T17:19:02.505Z,0.80
2022-12-28T17:21:30.439Z,0.70
2022-12-28T17:23:57.809Z,0.80
2022-12-28T17:26:25.032Z,1.10
2022-12-28T17:28:51.527Z,1.00
2022-12-28T17:31:20.583Z,0.82
2022-12-28T17:33:53.677Z,0.95
2022-12-28T17:36:20.943Z,0.85
2022-12-28T17:38:47.654Z,1.08
2022-12-28T17:41:17.659Z,1.10
2022-12-28T17:43:48.683Z,0.80
2022-12-28T17:46:15.651Z,0.80
2022-12-28T17:48:42.543Z,0.85
2022-12-28T17:51:11.383Z,0.90
2022-12-28T17:53:40.776Z,2.28
2022-12-28T17:56:10.671Z,1.58
2022-12-28T17:58:37.251Z,1.25
2022-12-28T18:01:05.035Z,1.02
2022-12-28T18:03:33.897Z,1.17
2022-12-28T18:06:01.233Z,1.00
2022-12-28T18:08:28.140Z,0.80
2022-12-28T18:10:54.777Z,0.90
2022-12-28T18:13:22.130Z,1.10
2022-12-28T18:15:48.887Z,1.08
2022-12-28T18:18:16.747Z,0.93
2022-12-28T18:20:43.554Z,0.98
2022-12-28T18:23:10.579Z,0.80
2022-12-28T18:25:37.827Z,1.27
2022-12-28T18:28:04.547Z,1.08
2022-12-28T18:30:31.093Z,0.85
2022-12-28T18:32:57.741Z,0.98
2022-12-28T18:35:26.780Z,0.82
2022-12-28T18:37:53.704Z,0.90
2022-12-28T18:40:20.434Z,0.98
2022-12-28T18:42:47.013Z,0.88
2022-12-28T18:45:13.503Z,1.13
2022-12-28T18:47:40.115Z,1.08
2022-12-28T18:50:07.309Z,1.00
2022-12-28T18:52:36.213Z,1.02
2022-12-28T18:55:03.506Z,0.80
2022-12-28T18:57:30.333Z,0.98
2022-12-28T18:59:57.057Z,1.08
2022-12-28T19:02:23.653Z,0.93
2022-12-28T19:04:52.841Z,0.80
2022-12-28T19:07:19.715Z,0.98
2022-12-28T19:10:12.107Z,1.13
2022-12-28T19:12:41.579Z,0.80
2022-12-28T19:15:09.329Z,0.90
2022-12-28T19:17:35.895Z,1.00
2022-12-28T19:20:02.968Z,0.90
2022-12-28T19:22:30.005Z,1.15
2022-12-28T19:24:56.502Z,0.90
2022-12-28T19:27:23.022Z,1.10
2022-12-28T19:29:50.631Z,0.90
2022-12-28T19:32:17.254Z,1.00
2022-12-28T19:34:43.798Z,1.00
2022-12-28T19:37:10.352Z,0.80
2022-12-28T19:39:36.923Z,1.00
2022-12-28T19:42:03.794Z,0.77
2022-12-28T19:44:30.388Z,1.00
2022-12-28T19:46:56.918Z,0.77
2022-12-28T19:49:23.637Z,1.00
2022-12-28T19:51:50.211Z,0.80
2022-12-28T19:54:16.764Z,1.00
2022-12-28T19:56:43.734Z,0.80
2022-12-28T19:59:10.295Z,0.70
2022-12-28T20:01:37.564Z,0.77
2022-12-28T20:04:12.345Z,0.77
2022-12-28T20:06:41.487Z,0.75
2022-12-28T20:09:08.187Z,0.90
2022-12-28T20:11:35.398Z,0.80
2022-12-28T20:14:03.403Z,0.85
2022-12-28T20:16:33.018Z,0.80
2022-12-28T20:19:01.689Z,0.98
2022-12-28T20:21:28.871Z,0.80
2022-12-28T20:23:55.439Z,0.90
2022-12-28T20:26:25.217Z,0.90
2022-12-28T20:28:52.049Z,0.90
2022-12-28T20:31:18.893Z,0.80
2022-12-28T20:33:46.602Z,0.80
2022-12-28T20:36:21.581Z,0.82
2022-12-28T20:38:49.145Z,0.73
2022-12-28T20:41:42.488Z,0.82
2022-12-28T20:44:14.999Z,0.80
2022-12-28T20:46:43.096Z,0.80
2022-12-28T20:49:10.015Z,0.90
2022-12-28T20:51:37.074Z,0.80
2022-12-28T20:54:03.987Z,1.00
2022-12-28T20:56:30.845Z,0.90
2022-12-28T20:58:58.593Z,0.82
2022-12-28T21:01:25.465Z,0.75
2022-12-28T21:03:52.110Z,0.70
2022-12-28T21:06:18.840Z,1.00
2022-12-28T21:08:45.425Z,0.82
2022-12-28T21:11:11.991Z,0.68
2022-12-28T21:13:43.973Z,0.73
2022-12-28T21:16:11.797Z,0.80
2022-12-28T21:18:38.711Z,0.80
2022-12-28T21:21:05.996Z,0.70
2022-12-28T21:23:32.907Z,0.70
2022-12-28T21:26:06.464Z,0.80
2022-12-28T21:28:34.527Z,0.70
2022-12-28T21:31:03.628Z,0.68
2022-12-28T21:33:30.778Z,0.80
2022-12-28T21:36:05.500Z,0.70
2022-12-28T21:38:33.010Z,0.60
2022-12-28T21:41:06.502Z,0.70
2022-12-28T21:43:33.567Z,0.65
2022-12-28T21:46:11.872Z,0.70
2022-12-28T21:48:39.194Z,0.70
2022-12-28T21:51:31.990Z,0.80
2022-12-28T21:54:00.106Z,0.63
2022-12-28T21:56:27.314Z,0.88
2022-12-28T21:58:54.039Z,0.70
2022-12-28T22:01:39.707Z,0.90
2022-12-28T22:04:25.338Z,0.70
2022-12-28T22:06:51.851Z,0.70
2022-12-28T22:09:36.972Z,0.68
2022-12-28T22:12:22.480Z,0.80
2022-12-28T22:14:48.971Z,0.57
2022-12-28T22:17:15.501Z,0.73
2022-12-28T22:19:42.062Z,0.50
2022-12-28T22:22:08.576Z,0.73
2022-12-28T22:24:35.086Z,0.80
2022-12-28T22:27:01.606Z,0.50
2022-12-28T22:29:28.134Z,0.60
2022-12-28T22:31:54.719Z,0.60
2022-12-28T22:34:21.409Z,0.85
2022-12-28T22:36:47.911Z,0.70
2022-12-28T22:39:14.492Z,0.70
2022-12-28T22:41:41.034Z,0.80
2022-12-28T22:44:09.915Z,0.75
2022-12-28T22:46:36.484Z,0.80
2022-12-28T22:49:03.191Z,0.60
2022-12-28T22:51:29.751Z,0.80
2022-12-28T22:53:56.266Z,0.70
2022-12-28T22:56:22.857Z,0.88
2022-12-28T22:58:49.445Z,0.40
2022-12-28T23:01:18.925Z,0.70
2022-12-28T23:03:47.628Z,0.40
2022-12-28T23:06:16.176Z,0.73
2022-12-28T23:08:42.700Z,0.70
2022-12-28T23:11:32.374Z,0.70
2022-12-28T23:14:22.013Z,0.65
2022-12-28T23:16:49.491Z,0.57
2022-12-28T23:19:35.218Z,0.60
2022-12-28T23:22:22.548Z,0.60
2022-12-28T23:25:08.065Z,0.70
2022-12-28T23:27:37.896Z,0.80
2022-12-28T23:30:22.743Z,0.60
2022-12-28T23:32:51.073Z,0.65
2022-12-28T23:35:19.057Z,0.50
2022-12-28T23:37:45.818Z,0.60
2022-12-28T23:40:14.873Z,0.60
2022-12-28T23:42:42.898Z,0.65
2022-12-28T23:45:13.392Z,0.55
2022-12-28T23:47:40.006Z,0.63
2022-12-28T23:50:07.441Z,0.70
2022-12-28T23:52:34.316Z,0.63
2022-12-28T23:55:00.882Z,0.60
2022-12-28T23:57:27.707Z,0.70
2022-12-28T23:59:54.398Z,0.50
